Time;durP1;ratioP1;P1;durP2;ratioP2;P2;SDS_P1;SDS_P2;PMS_P1;PMS_P2;Temp;Humidity;BMP_temperature;BMP_pressure;BME280_temperature;BME280_humidity;BME280_pressure;Samples;Min_cycle;Max_cycle;Signal;HPM_P1;HPM_P2
2022/07/23 00:01:08;;;;;;;8.70;8.00;;;31.00;57.50;;;;;;5055454;28;20485;-75
2022/07/23 00:03:36;;;;;;;9.00;8.40;;;31.00;57.40;;;;;;5052332;28;20485;-76
2022/07/23 00:06:08;;;;;;;7.37;6.83;;;31.00;57.50;;;;;;5051174;28;20491;-75
2022/07/23 00:08:37;;;;;;;8.47;7.77;;;31.00;57.70;;;;;;5054191;28;20516;-76
2022/07/23 00:11:09;;;;;;;8.77;8.00;;;30.90;57.70;;;;;;5069524;28;20509;-76
2022/07/23 00:13:37;;;;;;;7.33;6.73;;;30.90;57.90;;;;;;5063206;28;20527;-75
2022/07/23 00:16:06;;;;;;;8.13;7.53;;;30.90;57.90;;;;;;5055955;28;20793;-75
2022/07/23 00:18:35;;;;;;;7.63;7.07;;;30.90;58.00;;;;;;5058898;28;20965;-76
2022/07/23 00:21:06;;;;;;;7.10;6.60;;;30.90;57.90;;;;;;5054558;28;20462;-75
2022/07/23 00:23:34;;;;;;;7.23;6.47;;;30.80;58.00;;;;;;5053521;28;20935;-75
2022/07/23 00:26:07;;;;;;;8.30;7.67;;;30.90;58.00;;;;;;5054203;28;20480;-76
2022/07/23 00:28:37;;;;;;;7.80;7.20;;;30.80;58.00;;;;;;5056523;28;20473;-76
2022/07/23 00:31:08;;;;;;;7.80;7.20;;;30.80;58.10;;;;;;5050937;28;20446;-76
2022/07/23 00:33:36;;;;;;;7.90;7.30;;;30.80;58.20;;;;;;5052636;28;20509;-75
2022/07/23 00:36:08;;;;;;;7.37;6.77;;;30.80;58.30;;;;;;5056945;28;20459;-76
2022/07/23 00:38:36;;;;;;;8.40;7.67;;;30.80;58.50;;;;;;5051917;28;20936;-75
2022/07/23 00:41:08;;;;;;;6.77;6.27;;;30.70;58.60;;;;;;5056686;28;20882;-75
2022/07/23 00:43:37;;;;;;;7.60;6.90;;;30.70;58.80;;;;;;5058963;28;20495;-75
2022/07/23 00:46:08;;;;;;;7.23;6.63;;;30.70;59.00;;;;;;5061805;28;20955;-75
2022/07/23 00:48:37;;;;;;;7.23;6.60;;;30.60;59.20;;;;;;5061377;28;20941;-75
2022/07/23 00:51:08;;;;;;;7.70;6.93;;;30.60;59.30;;;;;;5059348;28;20527;-76
2022/07/23 00:53:37;;;;;;;6.83;6.43;;;30.60;59.50;;;;;;5057700;28;20544;-75
2022/07/23 00:56:09;;;;;;;6.90;6.30;;;30.60;59.50;;;;;;5061581;28;20489;-76
2022/07/23 00:58:43;;;;;;;7.50;7.00;;;30.60;59.60;;;;;;5063166;28;20443;-75
2022/07/23 01:01:12;;;;;;;7.63;6.93;;;30.60;59.70;;;;;;5063757;28;20459;-75
2022/07/23 01:03:41;;;;;;;7.10;6.60;;;30.60;59.70;;;;;;5062698;28;20503;-76
2022/07/23 01:06:10;;;;;;;7.20;6.60;;;30.60;59.70;;;;;;5063413;28;20476;-75
2022/07/23 01:08:38;;;;;;;7.17;6.57;;;30.60;59.70;;;;;;5050699;28;20507;-75
2022/07/23 01:11:09;;;;;;;6.50;6.10;;;30.60;59.60;;;;;;5051822;28;20458;-75
2022/07/23 01:13:41;;;;;;;7.87;7.20;;;30.60;59.60;;;;;;5056688;28;20948;-75
2022/07/23 01:16:10;;;;;;;7.10;6.50;;;30.60;59.60;;;;;;5061695;28;20909;-75
2022/07/23 01:18:40;;;;;;;7.20;6.70;;;30.60;59.60;;;;;;5051224;28;20989;-75
2022/07/23 01:21:12;;;;;;;7.13;6.50;;;30.60;59.50;;;;;;5051014;28;20461;-76
2022/07/23 01:23:42;;;;;;;7.00;6.60;;;30.60;59.60;;;;;;5051526;28;20815;-75
2022/07/23 01:26:11;;;;;;;6.97;6.50;;;30.60;59.70;;;;;;5059733;28;20503;-76
2022/07/23 01:28:39;;;;;;;8.00;7.40;;;30.60;59.80;;;;;;5070677;28;20478;-75
2022/07/23 01:31:07;;;;;;;7.77;7.07;;;30.50;60.00;;;;;;5066368;28;20963;-76
2022/07/23 01:33:36;;;;;;;8.13;6.80;;;30.50;60.10;;;;;;5060515;28;20487;-75
2022/07/23 01:36:09;;;;;;;7.80;7.10;;;30.50;60.20;;;;;;5063392;28;20511;-75
2022/07/23 01:38:37;;;;;;;7.30;6.80;;;30.50;60.40;;;;;;5051159;28;20544;-76
2022/07/23 01:41:10;;;;;;;7.83;7.10;;;30.50;60.40;;;;;;5062762;28;20488;-75
2022/07/23 01:43:40;;;;;;;7.43;6.80;;;30.50;60.50;;;;;;5055973;28;20469;-75
2022/07/23 01:46:09;;;;;;;7.47;6.87;;;30.40;60.60;;;;;;5069686;28;20980;-76
2022/07/23 01:48:42;;;;;;;7.43;6.83;;;30.40;60.60;;;;;;5061355;28;20457;-76
2022/07/23 01:51:36;;;;;;;6.73;6.13;;;30.40;60.60;;;;;;5053186;28;20580;-75
2022/07/23 01:54:09;;;;;;;7.13;6.53;;;30.40;60.70;;;;;;5065221;28;20530;-75
2022/07/23 01:56:39;;;;;;;6.83;6.33;;;30.40;60.80;;;;;;5059209;28;20490;-75
2022/07/23 01:59:08;;;;;;;7.57;6.83;;;30.40;60.80;;;;;;5050337;28;20955;-75
2022/07/23 02:01:36;;;;;;;6.60;6.10;;;30.40;60.90;;;;;;5049943;28;21012;-78
2022/07/23 02:04:04;;;;;;;6.83;6.30;;;30.40;61.00;;;;;;5058203;28;20529;-75
2022/07/23 02:06:33;;;;;;;7.00;6.43;;;30.40;61.00;;;;;;5059587;28;20473;-76
2022/07/23 02:09:01;;;;;;;6.60;6.00;;;30.40;61.10;;;;;;5049835;28;21023;-75
2022/07/23 02:11:30;;;;;;;7.33;6.63;;;30.40;61.10;;;;;;5058068;28;20570;-75
2022/07/23 02:13:59;;;;;;;6.90;6.37;;;30.40;61.20;;;;;;5052470;28;20939;-75
2022/07/23 02:16:28;;;;;;;6.30;5.90;;;30.40;61.20;;;;;;5051629;28;21054;-75
2022/07/23 02:19:02;;;;;;;7.17;6.57;;;30.40;61.20;;;;;;5050133;28;20817;-75
2022/07/23 02:21:31;;;;;;;6.93;6.43;;;30.30;61.20;;;;;;5055720;28;20790;-75
2022/07/23 02:23:59;;;;;;;7.73;6.93;;;30.40;61.20;;;;;;5057830;28;20466;-75
2022/07/23 02:26:28;;;;;;;7.93;7.30;;;30.40;61.20;;;;;;5069551;28;20855;-76
2022/07/23 02:28:58;;;;;;;7.50;6.87;;;30.40;61.20;;;;;;5072829;28;20490;-75
2022/07/23 02:31:27;;;;;;;7.60;6.90;;;30.30;61.30;;;;;;5073019;28;20786;-77
2022/07/23 02:33:57;;;;;;;7.00;6.50;;;30.30;61.30;;;;;;5072388;28;20875;-74
2022/07/23 02:36:26;;;;;;;7.30;6.80;;;30.30;61.30;;;;;;5061636;28;20951;-74
2022/07/23 02:38:54;;;;;;;7.90;7.33;;;30.30;61.40;;;;;;5053088;28;21007;-74
2022/07/23 02:41:24;;;;;;;7.23;6.73;;;30.30;61.50;;;;;;5052868;28;20455;-74
2022/07/23 02:43:52;;;;;;;7.23;6.63;;;30.30;61.50;;;;;;5066740;28;20951;-74
2022/07/23 02:46:23;;;;;;;7.13;6.63;;;30.30;61.50;;;;;;5068159;28;20480;-74
2022/07/23 02:48:51;;;;;;;7.10;6.60;;;30.30;61.50;;;;;;5073142;28;20450;-74
2022/07/23 02:51:20;;;;;;;7.27;6.73;;;30.30;61.50;;;;;;5073258;28;21007;-74
2022/07/23 02:53:54;;;;;;;7.70;7.00;;;30.20;61.50;;;;;;5065475;28;20463;-74
2022/07/23 02:56:22;;;;;;;8.03;7.23;;;30.20;61.50;;;;;;5062471;28;20461;-74
2022/07/23 02:58:50;;;;;;;7.33;6.73;;;30.20;61.50;;;;;;5074198;28;20454;-74
2022/07/23 03:01:19;;;;;;;7.77;7.17;;;30.20;61.50;;;;;;5073489;28;20817;-74
2022/07/23 03:03:49;;;;;;;7.10;6.60;;;30.20;61.50;;;;;;5072029;28;20954;-75
2022/07/23 03:06:18;;;;;;;7.10;6.60;;;30.20;61.60;;;;;;5066198;28;20500;-74
2022/07/23 03:08:46;;;;;;;10.30;7.30;;;30.30;61.80;;;;;;5052122;28;20858;-74
2022/07/23 03:11:14;;;;;;;7.73;7.23;;;30.30;61.80;;;;;;5054608;28;20455;-74
2022/07/23 03:13:44;;;;;;;7.57;7.07;;;30.20;61.60;;;;;;5066721;28;20514;-74
2022/07/23 03:16:13;;;;;;;8.33;7.63;;;30.20;61.60;;;;;;5058463;28;20504;-74
2022/07/23 03:18:41;;;;;;;8.13;7.53;;;30.20;61.60;;;;;;5053075;28;20557;-74
2022/07/23 03:21:12;;;;;;;8.07;7.30;;;30.20;61.70;;;;;;5053167;28;20457;-74
2022/07/23 03:23:41;;;;;;;7.60;7.10;;;30.20;61.70;;;;;;5052840;28;20833;-74
2022/07/23 03:26:09;;;;;;;8.07;7.27;;;30.20;61.80;;;;;;5071678;28;20494;-74
2022/07/23 03:28:37;;;;;;;8.03;7.33;;;30.20;61.80;;;;;;5073882;28;20813;-74
2022/07/23 03:31:06;;;;;;;8.37;7.77;;;30.20;61.70;;;;;;5072795;28;20442;-74
2022/07/23 03:33:35;;;;;;;7.97;7.37;;;30.20;61.70;;;;;;5072291;28;20484;-74
2022/07/23 03:36:10;;;;;;;7.30;6.70;;;30.20;61.70;;;;;;5054978;28;20531;-74
2022/07/23 03:38:44;;;;;;;8.37;7.67;;;30.20;61.70;;;;;;5071378;28;20501;-74
2022/07/23 03:41:13;;;;;;;7.30;6.80;;;30.20;61.70;;;;;;5069085;28;20466;-74
2022/07/23 03:43:41;;;;;;;8.60;8.00;;;30.20;61.70;;;;;;5052327;28;20451;-76
2022/07/23 03:46:12;;;;;;;9.30;8.50;;;30.20;61.60;;;;;;5052221;28;20472;-75
2022/07/23 03:48:40;;;;;;;8.80;8.10;;;30.10;61.70;;;;;;5064582;28;20460;-74
2022/07/23 03:51:08;;;;;;;8.40;7.80;;;30.10;61.60;;;;;;5069243;28;20567;-74
2022/07/23 03:53:38;;;;;;;8.17;7.57;;;30.10;61.70;;;;;;5060020;28;20461;-74
2022/07/23 03:56:08;;;;;;;8.53;7.83;;;30.10;61.70;;;;;;5053319;28;20482;-74
2022/07/23 03:58:36;;;;;;;8.33;7.73;;;30.10;61.60;;;;;;5052064;28;20487;-74
2022/07/23 04:01:08;;;;;;;8.07;7.50;;;30.10;61.60;;;;;;5054297;28;20492;-74
2022/07/23 04:03:37;;;;;;;9.03;8.37;;;30.10;61.70;;;;;;5055866;28;20496;-74
2022/07/23 04:06:08;;;;;;;7.93;7.33;;;30.10;61.70;;;;;;5068641;28;20820;-74
2022/07/23 04:08:37;;;;;;;8.03;7.40;;;30.10;61.70;;;;;;5051305;28;20503;-74
2022/07/23 04:11:10;;;;;;;8.37;7.57;;;30.00;61.60;;;;;;5052629;28;20466;-74
2022/07/23 04:13:38;;;;;;;8.40;7.80;;;30.00;61.60;;;;;;5051739;28;20542;-74
2022/07/23 04:16:10;;;;;;;9.90;7.60;;;30.00;61.50;;;;;;5053603;28;20469;-74
2022/07/23 04:18:38;;;;;;;7.97;7.37;;;30.00;61.50;;;;;;5057792;28;20469;-74
2022/07/23 04:21:12;;;;;;;7.63;7.03;;;30.00;61.50;;;;;;5059059;28;20465;-74
2022/07/23 04:23:41;;;;;;;8.03;7.53;;;30.00;61.60;;;;;;5070851;28;20538;-74
2022/07/23 04:26:10;;;;;;;9.00;8.27;;;30.00;61.80;;;;;;5053872;28;20462;-74
2022/07/23 04:28:45;;;;;;;8.60;7.97;;;30.00;62.10;;;;;;5064780;28;20472;-74
2022/07/23 04:31:13;;;;;;;8.30;7.63;;;30.00;62.10;;;;;;5070106;28;20456;-74
2022/07/23 04:33:41;;;;;;;8.47;7.77;;;30.00;62.10;;;;;;5071028;28;20460;-74
2022/07/23 04:36:10;;;;;;;8.00;7.20;;;29.90;61.90;;;;;;5055650;28;20465;-74
2022/07/23 04:38:38;;;;;;;8.63;8.03;;;29.90;62.20;;;;;;5050916;28;20553;-74
2022/07/23 04:41:07;;;;;;;7.87;7.33;;;29.90;62.10;;;;;;5058596;28;20467;-74
2022/07/23 04:43:36;;;;;;;8.00;7.40;;;29.90;62.10;;;;;;5052737;28;20452;-74
2022/07/23 04:46:08;;;;;;;7.60;7.00;;;29.90;62.00;;;;;;5061618;28;20540;-74
2022/07/23 04:48:43;;;;;;;9.27;8.57;;;29.90;62.00;;;;;;5051419;28;20470;-75
2022/07/23 04:51:12;;;;;;;8.30;7.70;;;29.90;61.90;;;;;;5051189;28;20599;-74
2022/07/23 04:53:40;;;;;;;7.90;7.30;;;29.90;61.90;;;;;;5056175;28;20462;-74
2022/07/23 04:56:09;;;;;;;7.90;7.07;;;29.90;61.90;;;;;;5053344;28;21028;-74
2022/07/23 04:58:38;;;;;;;8.80;8.10;;;29.90;61.80;;;;;;5058559;28;20946;-74
2022/07/23 05:01:07;;;;;;;7.93;7.33;;;29.90;61.80;;;;;;5053642;28;20474;-74
2022/07/23 05:03:36;;;;;;;8.47;7.87;;;29.90;61.80;;;;;;5052874;28;20463;-74
2022/07/23 05:06:08;;;;;;;7.83;7.23;;;29.90;61.80;;;;;;5051294;28;20463;-74
2022/07/23 05:08:37;;;;;;;7.10;6.60;;;29.90;61.80;;;;;;5051392;28;20473;-74
2022/07/23 05:11:08;;;;;;;8.30;7.50;;;29.90;61.80;;;;;;5056277;28;20467;-74
2022/07/23 05:13:38;;;;;;;7.93;7.33;;;29.90;61.80;;;;;;5061531;28;20884;-74
2022/07/23 05:16:08;;;;;;;7.67;7.07;;;29.90;61.80;;;;;;5070047;28;20459;-74
2022/07/23 05:18:37;;;;;;;8.87;8.10;;;29.90;61.80;;;;;;5061104;28;20465;-74
2022/07/23 05:21:09;;;;;;;8.83;8.03;;;29.90;61.80;;;;;;5066403;28;20561;-74
2022/07/23 05:23:37;;;;;;;7.93;7.43;;;29.90;62.00;;;;;;5052562;28;20451;-74
2022/07/23 05:26:09;;;;;;;8.17;7.53;;;29.90;62.10;;;;;;5052716;28;20467;-75
2022/07/23 05:28:38;;;;;;;8.33;7.57;;;29.90;62.20;;;;;;5065116;28;20469;-74
2022/07/23 05:31:10;;;;;;;7.67;7.10;;;29.90;62.20;;;;;;5054341;28;20469;-74
2022/07/23 05:33:38;;;;;;;8.40;7.70;;;29.90;62.30;;;;;;5053784;28;20463;-74
2022/07/23 05:36:11;;;;;;;9.37;7.80;;;29.90;62.30;;;;;;5052126;28;21271;-74
2022/07/23 05:38:45;;;;;;;8.50;7.80;;;29.80;62.50;;;;;;5051662;28;20547;-75
2022/07/23 05:41:14;;;;;;;7.73;7.03;;;29.80;62.40;;;;;;5054945;28;20931;-74
2022/07/23 05:43:44;;;;;;;7.90;7.20;;;29.80;62.30;;;;;;5057780;28;20504;-76
2022/07/23 05:46:15;;;;;;;8.13;7.53;;;29.80;62.60;;;;;;5053907;28;20532;-75
2022/07/23 05:48:49;;;;;;;8.23;7.53;;;29.80;62.50;;;;;;5054044;28;20488;-74
2022/07/23 05:51:45;;;;;;;8.40;7.60;;;29.80;62.50;;;;;;5044091;28;20475;-74
2022/07/23 05:54:15;;;;;;;8.37;7.63;;;29.80;62.80;;;;;;5050128;28;20511;-75
2022/07/23 05:56:43;;;;;;;9.10;8.40;;;29.80;62.90;;;;;;5055224;28;20470;-74
2022/07/23 05:59:14;;;;;;;8.47;7.77;;;29.80;62.90;;;;;;5053729;28;20460;-76
2022/07/23 06:01:43;;;;;;;7.67;7.07;;;29.80;62.90;;;;;;5049905;28;20448;-75
2022/07/23 06:04:12;;;;;;;8.33;7.73;;;29.80;62.80;;;;;;5055201;28;20462;-75
2022/07/23 06:06:49;;;;;;;7.80;7.30;;;29.80;62.80;;;;;;5055895;28;20467;-74
2022/07/23 06:09:18;;;;;;;7.57;7.00;;;29.80;62.50;;;;;;5057455;28;20471;-74
2022/07/23 06:11:46;;;;;;;8.80;8.10;;;29.80;62.50;;;;;;5059714;28;20459;-74
2022/07/23 06:14:16;;;;;;;8.50;7.70;;;29.80;62.50;;;;;;5053333;28;20951;-74
2022/07/23 06:17:02;;;;;;;8.47;7.67;;;29.80;62.90;;;;;;5055447;28;20493;-74
2022/07/23 06:19:30;;;;;;;8.50;7.80;;;29.80;62.90;;;;;;5055885;28;20498;-74
2022/07/23 06:21:59;;;;;;;8.33;7.63;;;29.80;62.80;;;;;;5056962;28;20856;-74
2022/07/23 06:24:29;;;;;;;7.43;6.83;;;29.80;62.70;;;;;;5037097;28;20462;-78
2022/07/23 06:26:57;;;;;;;9.13;8.43;;;29.90;62.60;;;;;;5056184;28;20942;-74
2022/07/23 06:29:26;;;;;;;8.90;8.20;;;29.90;62.60;;;;;;5054828;28;20535;-74
2022/07/23 06:31:55;;;;;;;8.00;7.40;;;29.90;62.60;;;;;;5049630;28;21158;-75
2022/07/23 06:34:23;;;;;;;9.63;8.90;;;29.80;62.60;;;;;;5056644;28;20881;-74
2022/07/23 06:36:51;;;;;;;9.60;8.80;;;29.80;62.60;;;;;;5055690;28;20554;-74
2022/07/23 06:39:20;;;;;;;9.13;8.50;;;29.80;62.60;;;;;;5053754;28;20517;-74
2022/07/23 06:41:49;;;;;;;8.80;8.00;;;29.80;62.80;;;;;;5061140;28;20445;-74
2022/07/23 06:44:20;;;;;;;9.60;8.77;;;29.90;62.80;;;;;;5061360;28;20456;-74
2022/07/23 06:46:51;;;;;;;9.30;8.70;;;29.80;63.10;;;;;;5064020;28;20458;-74
2022/07/23 06:49:19;;;;;;;8.87;8.07;;;29.80;63.00;;;;;;5059166;28;20481;-73
2022/07/23 06:51:48;;;;;;;10.47;9.40;;;29.80;63.10;;;;;;5054367;28;20475;-74
2022/07/23 06:54:16;;;;;;;8.40;7.60;;;29.80;63.10;;;;;;5051002;28;20470;-74
2022/07/23 06:56:45;;;;;;;8.60;8.00;;;29.80;62.90;;;;;;5057345;28;20434;-74
2022/07/23 06:59:13;;;;;;;9.30;8.40;;;29.80;63.10;;;;;;5053465;28;20816;-74
2022/07/23 07:01:41;;;;;;;9.03;8.10;;;29.80;63.10;;;;;;5050849;28;20456;-74
2022/07/23 07:04:11;;;;;;;9.33;8.40;;;29.80;63.20;;;;;;5063634;28;20517;-74
2022/07/23 07:06:39;;;;;;;8.90;8.10;;;29.80;63.10;;;;;;5060014;28;20481;-73
2022/07/23 07:09:07;;;;;;;8.23;7.63;;;29.80;63.30;;;;;;5057399;28;20487;-73
2022/07/23 07:11:35;;;;;;;9.53;8.73;;;29.80;63.30;;;;;;5059214;28;20840;-73
2022/07/23 07:14:04;;;;;;;9.67;8.97;;;29.80;63.20;;;;;;5056759;28;20551;-73
2022/07/23 07:16:32;;;;;;;9.40;8.50;;;29.80;63.30;;;;;;5056400;28;20457;-73
2022/07/23 07:19:01;;;;;;;9.40;8.80;;;29.80;63.30;;;;;;5055471;28;20834;-73
2022/07/23 07:21:31;;;;;;;9.20;8.30;;;29.80;63.30;;;;;;5070120;28;20470;-72
2022/07/23 07:24:00;;;;;;;9.80;8.90;;;29.80;63.10;;;;;;5067884;28;20476;-71
2022/07/23 07:26:28;;;;;;;9.07;8.37;;;29.80;63.00;;;;;;5064189;28;20513;-71
2022/07/23 07:28:56;;;;;;;9.47;8.77;;;29.80;63.20;;;;;;5058220;28;20809;-72
2022/07/23 07:31:24;;;;;;;7.97;7.37;;;29.80;63.00;;;;;;5058782;28;20463;-71
2022/07/23 07:33:53;;;;;;;9.20;8.40;;;29.90;62.80;;;;;;5059535;28;20458;-71
2022/07/23 07:36:22;;;;;;;9.70;8.80;;;29.90;62.80;;;;;;5062073;28;20440;-71
2022/07/23 07:38:52;;;;;;;9.10;8.23;;;29.90;62.80;;;;;;5056534;28;20970;-73
2022/07/23 07:41:23;;;;;;;8.57;7.83;;;29.90;62.60;;;;;;5054407;28;20451;-72
2022/07/23 07:43:52;;;;;;;7.73;7.13;;;29.90;62.60;;;;;;5055228;28;20449;-72
2022/07/23 07:46:20;;;;;;;8.70;8.03;;;29.90;62.60;;;;;;5057293;28;20452;-71
2022/07/23 07:48:48;;;;;;;8.50;7.90;;;29.90;62.50;;;;;;5053301;28;20814;-71
2022/07/23 07:51:23;;;;;;;9.00;8.30;;;29.90;62.40;;;;;;5053996;28;20576;-71
2022/07/23 07:53:54;;;;;;;7.80;7.20;;;30.00;62.30;;;;;;5062052;28;20946;-71
2022/07/23 07:56:23;;;;;;;7.57;7.07;;;30.00;62.20;;;;;;5060284;28;20454;-71
2022/07/23 07:58:52;;;;;;;9.07;8.23;;;30.00;62.40;;;;;;5055794;28;20466;-70
2022/07/23 08:01:20;;;;;;;10.33;8.27;;;30.00;62.30;;;;;;5059996;28;20515;-71
2022/07/23 08:03:48;;;;;;;8.33;7.63;;;30.00;62.20;;;;;;5050298;28;20549;-71
2022/07/23 08:06:17;;;;;;;8.30;7.70;;;30.10;62.00;;;;;;5054830;28;20552;-71
2022/07/23 08:08:48;;;;;;;7.87;7.30;;;30.10;62.00;;;;;;5060327;28;20473;-71
2022/07/23 08:11:17;;;;;;;8.33;7.77;;;30.10;61.90;;;;;;5061307;28;20532;-71
2022/07/23 08:13:46;;;;;;;8.03;7.37;;;30.10;61.90;;;;;;5064733;28;20551;-75
2022/07/23 08:16:14;;;;;;;10.07;7.83;;;30.10;61.80;;;;;;5056385;28;21041;-73
2022/07/23 08:18:42;;;;;;;7.60;7.00;;;30.10;61.80;;;;;;5061228;28;20449;-73
2022/07/23 08:21:11;;;;;;;8.70;7.90;;;30.10;61.80;;;;;;5061587;28;20552;-74
2022/07/23 08:23:39;;;;;;;8.67;7.97;;;30.10;61.80;;;;;;5052708;28;20482;-73
2022/07/23 08:26:10;;;;;;;8.53;7.93;;;30.10;61.70;;;;;;5072041;28;20567;-73
2022/07/23 08:28:40;;;;;;;7.10;6.60;;;30.10;61.70;;;;;;5063065;28;20500;-73
2022/07/23 08:31:10;;;;;;;8.33;7.63;;;30.10;61.70;;;;;;5052996;28;20495;-73
2022/07/23 08:33:39;;;;;;;8.20;7.50;;;30.10;61.80;;;;;;5054718;28;20441;-73
2022/07/23 08:36:10;;;;;;;8.57;7.90;;;30.10;61.70;;;;;;5073538;28;20911;-73
2022/07/23 08:38:38;;;;;;;7.90;7.30;;;30.10;61.80;;;;;;5072576;28;20474;-73
2022/07/23 08:41:09;;;;;;;8.37;7.70;;;30.10;61.60;;;;;;5060907;28;20497;-73
2022/07/23 08:43:38;;;;;;;8.27;7.50;;;30.10;61.60;;;;;;5054431;28;20449;-73
2022/07/23 08:46:11;;;;;;;8.63;8.00;;;30.10;61.70;;;;;;5072411;28;20459;-73
2022/07/23 08:48:39;;;;;;;6.97;6.57;;;30.10;61.70;;;;;;5072122;28;20461;-73
2022/07/23 08:51:10;;;;;;;8.17;7.57;;;30.10;61.60;;;;;;5073152;28;20570;-73
2022/07/23 08:53:40;;;;;;;7.70;7.20;;;30.10;61.70;;;;;;5070513;28;20785;-73
2022/07/23 08:56:09;;;;;;;7.40;6.80;;;30.10;61.60;;;;;;5053029;28;20484;-73
2022/07/23 08:58:38;;;;;;;7.60;7.10;;;30.10;61.60;;;;;;5052327;28;20421;-73
2022/07/23 09:01:10;;;;;;;7.40;6.80;;;30.10;61.50;;;;;;5051645;28;20511;-73
2022/07/23 09:03:39;;;;;;;7.40;6.80;;;30.20;61.60;;;;;;5052739;28;20436;-73
2022/07/23 09:06:10;;;;;;;7.70;7.20;;;30.20;61.60;;;;;;5052835;28;20510;-73
2022/07/23 09:08:40;;;;;;;6.83;6.33;;;30.20;61.50;;;;;;5052170;28;20517;-73
2022/07/23 09:11:09;;;;;;;7.23;6.73;;;30.20;61.40;;;;;;5064608;28;20459;-73
2022/07/23 09:13:41;;;;;;;8.00;7.40;;;30.20;61.30;;;;;;5053688;28;20793;-73
2022/07/23 09:16:13;;;;;;;8.30;7.60;;;30.20;61.30;;;;;;5072580;28;20543;-73
2022/07/23 09:18:45;;;;;;;7.33;6.83;;;30.20;61.40;;;;;;5065847;28;20539;-73
2022/07/23 09:21:16;;;;;;;7.93;7.43;;;30.20;61.40;;;;;;5074903;28;20448;-74
2022/07/23 09:23:46;;;;;;;8.20;7.60;;;30.20;61.40;;;;;;5090659;28;20520;-73
2022/07/23 09:26:30;;;;;;;7.00;6.50;;;30.20;61.40;;;;;;5055737;28;20949;-73
2022/07/23 09:29:03;;;;;;;7.47;6.97;;;30.20;61.30;;;;;;5072468;28;20444;-73
2022/07/23 09:31:48;;;;;;;8.37;7.77;;;30.20;61.30;;;;;;5072493;28;21301;-73
2022/07/23 09:34:22;;;;;;;7.63;7.03;;;30.20;61.40;;;;;;5065475;28;20559;-75
2022/07/23 09:36:53;;;;;;;7.27;6.67;;;30.20;61.40;;;;;;5053500;28;20464;-73
2022/07/23 09:39:30;;;;;;;7.60;7.00;;;30.20;61.40;;;;;;5054619;28;20545;-73
2022/07/23 09:41:59;;;;;;;7.30;6.80;;;30.20;61.40;;;;;;5066156;28;20468;-73
2022/07/23 09:44:27;;;;;;;7.10;6.53;;;30.30;61.40;;;;;;5062033;28;20967;-73
2022/07/23 09:47:01;;;;;;;7.70;7.10;;;30.30;61.40;;;;;;5060276;28;20437;-73
2022/07/23 09:49:30;;;;;;;7.70;6.90;;;30.30;61.50;;;;;;5076142;28;20514;-73
2022/07/23 09:52:01;;;;;;;7.60;7.10;;;30.30;61.50;;;;;;5075901;28;20479;-73
2022/07/23 09:54:34;;;;;;;7.47;6.97;;;30.30;61.40;;;;;;5068439;28;21003;-75
2022/07/23 09:57:07;;;;;;;7.60;7.00;;;30.30;61.40;;;;;;5062557;28;20461;-73
2022/07/23 09:59:38;;;;;;;7.00;6.40;;;30.30;61.30;;;;;;5076538;28;20457;-73
2022/07/23 10:02:11;;;;;;;7.93;7.40;;;30.30;61.40;;;;;;5055448;28;20499;-73
2022/07/23 10:04:55;;;;;;;7.53;6.93;;;30.30;61.30;;;;;;5057796;28;20500;-73
2022/07/23 10:07:34;;;;;;;7.80;7.20;;;30.30;61.30;;;;;;5062307;28;20557;-73
2022/07/23 10:10:23;;;;;;;7.23;6.73;;;30.30;61.40;;;;;;5056136;28;20484;-73
2022/07/23 10:15:49;;;;;;;7.37;6.87;;;30.40;61.40;;;;;;5065819;28;20464;-73
2022/07/23 10:18:19;;;;;;;7.20;6.63;;;30.40;61.40;;;;;;5062575;28;20449;-73
2022/07/23 10:20:49;;;;;;;7.60;7.00;;;30.40;61.20;;;;;;5065480;28;20458;-73
2022/07/23 10:23:23;;;;;;;8.37;7.57;;;30.40;61.00;;;;;;5066698;28;20447;-73
2022/07/23 10:26:00;;;;;;;8.70;8.10;;;30.40;60.90;;;;;;5061828;28;20449;-73
2022/07/23 10:28:52;;;;;;;8.13;7.53;;;30.40;61.10;;;;;;5054820;28;20507;-73
2022/07/23 10:31:36;;;;;;;8.63;7.93;;;30.40;61.10;;;;;;5061912;28;20495;-73
2022/07/23 10:34:37;;;;;;;8.50;7.80;;;30.40;61.00;;;;;;5058552;28;20553;-73
2022/07/23 10:37:13;;;;;;;9.00;8.30;;;30.40;61.10;;;;;;5055203;28;20446;-73
2022/07/23 10:39:48;;;;;;;7.83;7.33;;;30.40;61.20;;;;;;5060111;28;20453;-73
2022/07/23 10:42:18;;;;;;;8.13;7.37;;;30.40;61.20;;;;;;5073432;28;20445;-73
2022/07/23 10:44:48;;;;;;;8.73;8.13;;;30.50;61.10;;;;;;5069106;28;21201;-73
2022/07/23 10:50:20;;;;;;;7.67;7.20;;;30.50;61.10;;;;;;5060964;28;20854;-74
2022/07/23 10:53:20;;;;;;;7.30;6.80;;;30.50;60.90;;;;;;5067371;28;20831;-73
2022/07/23 10:55:51;;;;;;;7.70;7.20;;;30.50;60.80;;;;;;5028687;28;20463;-74
2022/07/23 10:58:44;;;;;;;8.07;7.37;;;30.50;60.90;;;;;;5048581;28;20971;-73
2022/07/23 11:01:36;;;;;;;8.83;8.13;;;30.50;60.90;;;;;;5056689;28;20459;-74
2022/07/23 11:04:07;;;;;;;8.23;7.63;;;30.50;61.00;;;;;;5052101;28;20462;-77
2022/07/23 11:07:12;;;;;;;8.83;8.13;;;30.50;60.90;;;;;;5054812;28;20441;-73
2022/07/23 11:09:42;;;;;;;8.50;7.90;;;30.50;61.00;;;;;;5062264;28;20446;-74
2022/07/23 11:12:32;;;;;;;9.70;9.00;;;30.50;60.90;;;;;;5061209;28;20448;-76
2022/07/23 11:15:01;;;;;;;8.50;7.90;;;30.50;61.10;;;;;;5062228;28;20512;-74
2022/07/23 11:17:30;;;;;;;9.17;8.50;;;30.50;61.10;;;;;;5060450;28;20485;-74
2022/07/23 11:20:19;;;;;;;9.20;8.50;;;30.60;61.00;;;;;;5065685;28;20483;-75
2022/07/23 11:22:51;;;;;;;9.40;8.70;;;30.60;61.00;;;;;;5057051;28;20947;-75
2022/07/23 11:25:35;;;;;;;8.60;7.90;;;30.60;61.00;;;;;;5063708;28;20449;-75
2022/07/23 11:28:15;;;;;;;9.90;9.00;;;30.60;60.90;;;;;;5067212;28;20503;-76
2022/07/23 11:30:45;;;;;;;9.07;8.37;;;30.60;61.00;;;;;;5057887;28;20469;-74
2022/07/23 11:33:19;;;;;;;9.90;9.00;;;30.60;61.00;;;;;;5062071;28;20466;-74
2022/07/23 11:35:49;;;;;;;9.77;9.07;;;30.60;60.90;;;;;;5065297;28;21322;-73
2022/07/23 11:38:21;;;;;;;9.13;8.43;;;30.60;60.90;;;;;;5069261;28;20449;-73
2022/07/23 11:40:57;;;;;;;10.13;9.33;;;30.60;61.00;;;;;;5065739;28;20485;-73
2022/07/23 11:43:28;;;;;;;10.57;9.57;;;30.70;60.90;;;;;;5062805;28;20533;-73
2022/07/23 11:46:00;;;;;;;9.27;8.53;;;30.70;60.90;;;;;;5066025;28;20977;-73
2022/07/23 11:48:29;;;;;;;9.97;9.07;;;30.70;60.80;;;;;;5058974;28;20533;-73
2022/07/23 11:50:58;;;;;;;9.57;8.77;;;30.70;60.80;;;;;;5056012;28;21469;-74
2022/07/23 11:53:29;;;;;;;9.70;8.37;;;30.70;60.70;;;;;;5057868;28;20457;-73
2022/07/23 11:56:09;;;;;;;9.27;8.50;;;30.70;60.70;;;;;;5067745;28;20537;-72
2022/07/23 11:58:38;;;;;;;8.97;8.10;;;30.80;60.60;;;;;;5057849;28;20546;-75
2022/07/23 12:01:10;;;;;;;10.27;9.33;;;30.70;60.70;;;;;;5065218;28;20463;-73
2022/07/23 12:03:50;;;;;;;9.60;8.90;;;30.80;60.80;;;;;;5065472;28;20453;-73
2022/07/23 12:06:19;;;;;;;11.43;9.77;;;30.80;60.90;;;;;;5052386;28;20464;-73
2022/07/23 12:08:49;;;;;;;9.83;8.90;;;30.80;60.80;;;;;;5066316;28;20499;-73
2022/07/23 12:11:17;;;;;;;10.10;9.10;;;30.80;60.80;;;;;;5057425;28;20523;-75
2022/07/23 12:13:57;;;;;;;9.10;8.50;;;30.80;60.80;;;;;;5056554;28;20508;-75
2022/07/23 12:16:25;;;;;;;9.53;8.80;;;30.80;60.80;;;;;;5055879;28;20814;-75
2022/07/23 12:18:53;;;;;;;11.13;10.23;;;30.80;60.80;;;;;;5057085;28;20473;-75
2022/07/23 12:21:22;;;;;;;10.20;9.10;;;30.80;60.80;;;;;;5058087;28;20459;-75
2022/07/23 12:23:51;;;;;;;9.87;9.07;;;30.70;60.90;;;;;;5051008;28;20481;-75
2022/07/23 12:26:20;;;;;;;8.90;8.30;;;30.70;60.90;;;;;;5051982;28;20944;-77
2022/07/23 12:28:53;;;;;;;9.67;8.77;;;30.70;60.90;;;;;;5051882;28;20501;-76
2022/07/23 12:31:27;;;;;;;9.73;9.03;;;30.70;60.90;;;;;;5053217;28;20506;-75
2022/07/23 12:33:55;;;;;;;9.10;8.07;;;30.70;60.90;;;;;;5060395;28;20456;-75
2022/07/23 12:36:39;;;;;;;8.90;8.13;;;30.70;60.90;;;;;;5055648;28;20458;-75
2022/07/23 12:39:09;;;;;;;10.27;9.30;;;30.70;61.00;;;;;;5059876;28;20442;-74
2022/07/23 12:41:53;;;;;;;9.63;8.87;;;30.70;61.10;;;;;;5059875;28;20457;-76
2022/07/23 12:44:22;;;;;;;9.20;8.50;;;30.70;61.10;;;;;;5063953;28;20853;-75
2022/07/23 12:46:52;;;;;;;10.37;8.30;;;30.70;61.10;;;;;;5069519;28;20452;-74
2022/07/23 12:49:27;;;;;;;9.97;9.03;;;30.70;61.10;;;;;;5070162;28;20446;-74
2022/07/23 12:51:57;;;;;;;9.93;9.00;;;30.70;61.00;;;;;;5069102;28;20498;-74
2022/07/23 12:54:29;;;;;;;9.30;8.50;;;30.70;61.10;;;;;;5066474;28;20463;-75
2022/07/23 12:56:57;;;;;;;9.37;8.53;;;30.70;61.10;;;;;;5061246;28;20467;-75
2022/07/23 12:59:31;;;;;;;10.00;9.00;;;30.70;61.10;;;;;;5053065;28;20543;-75
2022/07/23 13:02:00;;;;;;;9.23;8.37;;;30.80;60.80;;;;;;5054734;28;20454;-77
2022/07/23 13:04:31;;;;;;;10.47;9.40;;;30.70;61.00;;;;;;5056587;28;20465;-76
2022/07/23 13:07:01;;;;;;;8.60;7.80;;;30.70;61.20;;;;;;5053135;28;20554;-74
2022/07/23 13:09:51;;;;;;;9.00;8.20;;;30.70;61.30;;;;;;5069463;28;20438;-74
2022/07/23 13:12:19;;;;;;;9.90;9.00;;;30.70;61.50;;;;;;5068420;28;20508;-74